Time;durP1;ratioP1;P1;durP2;ratioP2;P2;SDS_P1;SDS_P2;PMS_P1;PMS_P2;Temp;Humidity;BMP_temperature;BMP_pressure;BME280_temperature;BME280_humidity;BME280_pressure;Samples;Min_cycle;Max_cycle;Signal;HPM_P1;HPM_P2
2022/09/27 00:01:11;;;;;;;1.30;0.70;;;9.50;99.90;;;9.01;100.00;95510.50;5047618;28;19936;-42
2022/09/27 00:03:37;;;;;;;2.40;0.90;;;9.60;99.90;;;8.94;100.00;95505.66;5049223;28;20032;-43
2022/09/27 00:06:12;;;;;;;0.82;0.60;;;9.50;99.90;;;8.98;100.00;95498.41;5051283;28;20542;-42
2022/09/27 00:08:38;;;;;;;1.15;0.80;;;9.50;99.90;;;8.79;100.00;95473.25;5058760;28;20044;-41
2022/09/27 00:11:09;;;;;;;0.95;0.52;;;9.60;99.90;;;8.93;100.00;95503.09;5053483;28;20031;-42
2022/09/27 00:13:35;;;;;;;4.15;0.80;;;9.50;99.90;;;8.84;100.00;95480.00;5063939;28;20039;-41
2022/09/27 00:16:05;;;;;;;0.60;0.60;;;9.50;99.90;;;8.96;100.00;95498.50;5041478;28;20037;-43
2022/09/27 00:18:32;;;;;;;1.00;0.65;;;9.50;99.90;;;9.02;100.00;95488.56;5041803;28;20643;-41
2022/09/27 00:21:06;;;;;;;0.95;0.65;;;9.60;99.90;;;9.01;100.00;95492.13;5049752;28;20047;-43
2022/09/27 00:23:32;;;;;;;2.00;0.73;;;9.60;99.90;;;8.95;100.00;95483.69;5046419;28;20090;-43
2022/09/27 00:25:58;;;;;;;1.58;0.63;;;9.60;99.90;;;9.01;100.00;95485.09;5047797;28;20037;-47
2022/09/27 00:28:25;;;;;;;1.17;0.70;;;9.60;99.90;;;8.96;100.00;95480.09;5050231;28;20027;-42
2022/09/27 00:30:51;;;;;;;2.13;0.68;;;9.50;99.90;;;8.92;100.00;95475.16;5040068;28;22831;-41
2022/09/27 00:33:17;;;;;;;1.27;0.57;;;9.50;99.90;;;8.87;100.00;95480.66;5048910;28;20035;-42
2022/09/27 00:35:43;;;;;;;0.50;0.50;;;9.50;99.90;;;8.95;100.00;95478.44;5045361;28;20036;-43
2022/09/27 00:38:09;;;;;;;1.80;0.70;;;9.50;99.90;;;8.90;100.00;95482.25;5046129;28;20051;-41
2022/09/27 00:40:35;;;;;;;0.70;0.60;;;9.50;99.90;;;8.91;100.00;95481.31;5047992;28;20623;-43
2022/09/27 00:43:01;;;;;;;1.40;0.63;;;9.50;99.90;;;8.90;100.00;95467.34;5038633;28;20067;-41
2022/09/27 00:45:27;;;;;;;1.73;0.60;;;9.50;99.90;;;8.88;100.00;95471.84;5039775;28;20509;-43
2022/09/27 00:48:00;;;;;;;0.80;0.60;;;9.50;99.90;;;8.87;100.00;95475.41;5047095;28;20036;-42
2022/09/27 00:50:35;;;;;;;0.60;0.43;;;9.50;99.90;;;8.87;100.00;95472.78;5045995;28;20508;-42
2022/09/27 00:53:13;;;;;;;2.05;0.50;;;9.50;99.90;;;8.89;100.00;95465.66;5047866;28;20635;-42
2022/09/27 00:55:52;;;;;;;0.90;0.50;;;9.50;99.90;;;8.87;100.00;95471.94;5040516;28;20451;-42
2022/09/27 00:58:23;;;;;;;1.17;0.77;;;9.50;99.90;;;8.84;100.00;95457.19;5043975;28;20119;-42
2022/09/27 01:00:53;;;;;;;0.47;0.40;;;9.50;99.90;;;8.89;100.00;95462.19;5036891;28;21491;-41
2022/09/27 01:03:33;;;;;;;0.65;0.50;;;9.50;99.90;;;8.85;100.00;95456.25;5045075;28;20031;-42
2022/09/27 01:05:59;;;;;;;1.08;0.55;;;9.50;99.90;;;8.85;100.00;95466.78;5047315;28;20482;-42
2022/09/27 01:08:25;;;;;;;3.30;0.57;;;9.50;99.90;;;8.91;100.00;95470.81;5047967;28;20032;-41
2022/09/27 01:11:44;;;;;;;1.92;0.60;;;9.50;99.90;;;8.88;100.00;95471.84;5043919;28;20040;-42
2022/09/27 01:14:54;;;;;;;0.80;0.60;;;9.50;99.90;;;8.90;100.00;95483.13;5040237;28;20489;-42
2022/09/27 01:17:48;;;;;;;0.98;0.63;;;9.50;99.90;;;8.88;100.00;95474.50;5040652;28;20036;-41
2022/09/27 01:20:47;;;;;;;0.57;0.50;;;9.50;99.90;;;8.88;100.00;95477.13;5049497;28;20052;-42
2022/09/27 01:23:53;;;;;;;0.50;0.50;;;9.50;99.90;;;8.74;100.00;95449.03;5045016;28;20086;-42
2022/09/27 01:26:59;;;;;;;1.42;0.60;;;9.50;99.90;;;8.96;100.00;95476.63;5024671;28;20032;-42
2022/09/27 01:30:05;;;;;;;1.35;0.60;;;9.50;99.90;;;8.96;100.00;95477.47;5061860;28;20396;-41
2022/09/27 01:32:54;;;;;;;1.65;0.50;;;9.60;99.90;;;8.97;100.00;95471.28;5045345;28;20332;-43
2022/09/27 01:35:46;;;;;;;0.75;0.43;;;9.60;99.90;;;8.97;100.00;95471.28;5046883;28;20235;-42
2022/09/27 01:38:38;;;;;;;1.95;0.50;;;9.60;99.90;;;8.93;100.00;95467.13;5075286;22;20055;-42
2022/09/27 01:41:35;;;;;;;0.73;0.40;;;9.50;99.90;;;8.89;100.00;95467.44;5057863;28;20493;-42
2022/09/27 01:44:08;;;;;;;0.93;0.70;;;9.50;99.90;;;8.88;100.00;95458.72;5061863;28;20047;-42
2022/09/27 01:46:37;;;;;;;;;;;9.50;99.90;;;8.80;100.00;95458.31;5057742;28;20116;-42
2022/09/27 01:49:12;;;;;;;1.25;0.60;;;9.40;99.90;;;8.82;100.00;95472.22;5038505;28;20557;-42
2022/09/27 01:52:05;;;;;;;1.50;0.60;;;9.40;99.90;;;8.81;100.00;95472.31;5037543;28;20036;-43
2022/09/27 01:54:40;;;;;;;0.95;0.50;;;9.40;99.90;;;8.80;100.00;95463.59;5033298;28;20083;-42
2022/09/27 01:57:09;;;;;;;0.52;0.40;;;9.40;99.90;;;8.84;100.00;95470.34;5038488;28;20044;-42
2022/09/27 01:59:53;;;;;;;2.95;0.50;;;9.50;99.90;;;8.88;100.00;95463.97;5045874;28;20024;-42
2022/09/27 02:02:23;;;;;;;1.48;0.50;;;9.50;99.90;;;8.94;100.00;95481.97;5037631;28;20033;-42
2022/09/27 02:04:55;;;;;;;1.20;0.60;;;9.50;99.90;;;8.96;100.00;95476.63;5038789;28;20047;-42
2022/09/27 02:07:30;;;;;;;2.30;0.50;;;9.50;99.90;;;8.98;100.00;95475.59;5042649;28;20051;-42
2022/09/27 02:10:04;;;;;;;0.75;0.43;;;9.60;99.90;;;8.95;100.00;95470.53;5045676;28;20035;-42
2022/09/27 02:12:35;;;;;;;0.80;0.40;;;9.60;99.90;;;8.96;100.00;95477.47;5047539;28;20025;-42
2022/09/27 02:15:11;;;;;;;0.85;0.40;;;9.60;99.90;;;8.93;100.00;95477.66;5039933;28;20036;-42
2022/09/27 02:18:12;;;;;;;0.70;0.40;;;9.60;99.90;;;8.94;100.00;95481.16;5039327;28;20031;-42
2022/09/27 02:20:44;;;;;;;1.27;0.70;;;9.50;99.90;;;8.93;100.00;95496.06;5049125;28;20043;-43
2022/09/27 02:23:36;;;;;;;0.65;0.63;;;9.50;99.90;;;8.92;100.00;95494.38;5047631;28;20146;-42
2022/09/27 02:26:27;;;;;;;0.68;0.40;;;9.50;99.90;;;8.93;100.00;95508.38;5042102;28;20070;-43
2022/09/27 02:29:19;;;;;;;1.65;0.98;;;9.50;99.90;;;8.93;100.00;95498.69;5050338;28;20037;-43
2022/09/27 02:31:45;;;;;;;2.38;0.70;;;9.50;99.90;;;8.91;100.00;95507.63;5040863;28;20115;-43
2022/09/27 02:34:26;;;;;;;1.38;0.80;;;9.50;99.90;;;8.96;100.00;95508.19;5038429;28;20835;-42
2022/09/27 02:36:52;;;;;;;1.08;0.70;;;9.50;99.90;;;8.85;100.00;95505.38;5037691;28;20093;-42
2022/09/27 02:39:19;;;;;;;1.98;0.50;;;9.40;99.90;;;8.78;100.00;95491.75;5042853;28;20028;-42
2022/09/27 02:41:44;;;;;;;4.07;0.50;;;9.40;99.90;;;8.77;100.00;95503.19;5036587;28;20040;-42
2022/09/27 02:44:14;;;;;;;1.05;0.60;;;9.40;99.90;;;8.65;100.00;95493.41;5042605;28;20063;-42
2022/09/27 02:47:01;;;;;;;0.95;0.40;;;9.30;99.90;;;8.58;100.00;95500.81;5037311;28;20028;-43
2022/09/27 02:49:47;;;;;;;0.60;0.30;;;9.20;99.90;;;8.57;100.00;95496.50;5038560;28;20037;-44
2022/09/27 02:52:44;;;;;;;0.77;0.40;;;9.20;99.90;;;8.48;100.00;95503.13;5037326;28;20028;-42
2022/09/27 02:55:29;;;;;;;0.60;0.32;;;9.10;99.90;;;8.36;100.00;95506.44;5036349;28;20506;-43
2022/09/27 02:58:21;;;;;;;1.23;0.50;;;9.00;99.90;;;8.34;100.00;95517.03;5039752;28;20176;-43
2022/09/27 03:01:24;;;;;;;1.88;0.40;;;8.90;99.90;;;8.22;100.00;95518.59;5035303;28;20569;-42
2022/09/27 03:04:34;;;;;;;1.65;0.68;;;8.90;99.90;;;8.18;100.00;95519.72;5038288;28;20028;-42
2022/09/27 03:07:01;;;;;;;8.77;0.73;;;8.80;99.90;;;8.03;100.00;95508.28;5042388;28;23086;-44
2022/09/27 03:09:46;;;;;;;1.08;0.60;;;8.70;99.90;;;7.91;100.00;95522.13;5050436;28;20032;-42
2022/09/27 03:12:13;;;;;;;4.25;0.70;;;8.60;99.90;;;7.92;100.00;95530.84;5041692;28;20094;-42
2022/09/27 03:14:39;;;;;;;1.15;0.70;;;8.50;99.90;;;7.82;100.00;95523.50;5043544;28;20060;-43
2022/09/27 03:17:05;;;;;;;2.40;0.68;;;8.50;99.90;;;7.79;100.00;95531.53;5045094;28;20526;-42
2022/09/27 03:19:31;;;;;;;4.43;0.70;;;8.50;99.90;;;7.77;100.00;95529.91;5050005;28;20067;-43
2022/09/27 03:21:57;;;;;;;1.92;0.75;;;8.40;99.90;;;7.74;100.00;95532.72;5044696;28;20043;-44
2022/09/27 03:24:23;;;;;;;2.13;0.80;;;8.40;99.90;;;7.75;100.00;95537.91;5054677;28;20063;-42
2022/09/27 03:26:49;;;;;;;1.38;0.47;;;8.40;99.90;;;7.73;100.00;95544.16;5046989;28;20041;-44
2022/09/27 03:29:15;;;;;;;4.50;0.82;;;8.40;99.90;;;7.71;100.00;95544.22;5040608;28;20029;-43
2022/09/27 03:31:41;;;;;;;5.30;1.00;;;8.40;99.90;;;7.72;100.00;95558.22;5045604;28;20034;-43
2022/09/27 03:34:07;;;;;;;1.92;0.70;;;8.40;99.90;;;7.72;100.00;95556.41;5042096;28;20191;-44
2022/09/27 03:36:33;;;;;;;2.65;0.73;;;8.40;99.90;;;7.69;100.00;95553.97;5053180;28;20110;-44
2022/09/27 03:38:58;;;;;;;4.43;1.20;;;8.40;99.90;;;7.71;100.00;95553.88;5035263;28;20426;-45
2022/09/27 03:41:24;;;;;;;3.92;0.82;;;8.40;99.90;;;7.68;100.00;95557.53;5046352;28;20032;-43
2022/09/27 03:43:50;;;;;;;2.53;0.60;;;8.30;99.90;;;7.67;100.00;95560.22;5042459;28;20048;-44
2022/09/27 03:46:15;;;;;;;2.25;0.93;;;8.30;99.90;;;7.67;100.00;95552.38;5040772;28;20524;-45
2022/09/27 03:48:41;;;;;;;5.97;0.70;;;8.30;99.90;;;7.66;100.00;95546.25;5035872;28;20463;-44
2022/09/27 03:51:11;;;;;;;1.75;0.90;;;8.30;99.90;;;7.65;100.00;95563.78;5042214;28;20123;-44
2022/09/27 03:53:36;;;;;;;1.42;0.60;;;8.30;99.90;;;7.71;100.00;95559.13;5049540;28;20094;-44
2022/09/27 03:56:02;;;;;;;4.15;1.02;;;8.40;99.90;;;7.73;100.00;95559.88;5038209;28;20489;-43
2022/09/27 03:58:27;;;;;;;1.02;0.70;;;8.40;99.90;;;7.76;100.00;95557.09;5046293;28;20047;-43
2022/09/27 04:00:53;;;;;;;3.92;0.70;;;8.40;99.90;;;7.80;100.00;95556.81;5042227;28;20588;-44
2022/09/27 04:03:19;;;;;;;2.53;0.98;;;8.40;99.90;;;7.81;100.00;95555.91;5049781;28;20059;-43
2022/09/27 04:05:44;;;;;;;3.85;1.23;;;8.50;99.90;;;7.87;100.00;95556.50;5043020;28;20036;-44
2022/09/27 04:08:11;;;;;;;1.33;0.82;;;8.50;99.90;;;7.89;100.00;95552.84;5046103;28;20033;-44
2022/09/27 04:10:37;;;;;;;1.90;0.90;;;8.50;99.90;;;7.92;100.00;95559.72;5045564;28;20779;-44
2022/09/27 04:13:03;;;;;;;2.47;0.73;;;8.60;99.90;;;7.93;100.00;95551.78;5039546;28;20031;-43
2022/09/27 04:15:29;;;;;;;4.75;1.00;;;8.60;99.90;;;7.92;100.00;95560.56;5035204;28;20036;-44
2022/09/27 04:17:55;;;;;;;4.57;1.35;;;8.60;99.90;;;7.89;100.00;95562.50;5034997;28;20043;-43
2022/09/27 04:20:20;;;;;;;3.30;1.10;;;8.50;99.90;;;7.90;100.00;95564.22;5037845;28;20478;-45
2022/09/27 04:22:46;;;;;;;7.82;1.17;;;8.60;99.90;;;7.90;100.00;95561.59;5028814;28;20043;-43
2022/09/27 04:25:12;;;;;;;3.70;1.30;;;8.60;99.90;;;7.92;100.00;95563.19;5048396;28;20516;-45
2022/09/27 04:27:42;;;;;;;3.10;1.20;;;8.60;99.90;;;7.94;100.00;95568.34;5042604;28;20128;-47
2022/09/27 04:30:08;;;;;;;3.65;1.45;;;8.60;99.90;;;7.96;100.00;95569.09;5061649;28;20041;-45
2022/09/27 04:32:40;;;;;;;2.75;1.30;;;8.60;99.90;;;7.99;100.00;95561.06;5052156;28;20032;-47
2022/09/27 04:37:50;;;;;;;4.80;1.40;;;8.70;99.90;;;8.07;100.00;95576.38;5041754;28;20843;-48
2022/09/27 04:40:16;;;;;;;8.30;1.85;;;8.70;99.90;;;8.08;100.00;95572.84;5048519;28;20040;-46
2022/09/27 04:42:41;;;;;;;3.55;1.20;;;8.70;99.90;;;8.10;100.00;95571.81;5049425;28;20032;-44
2022/09/27 04:45:07;;;;;;;4.13;1.50;;;8.70;99.90;;;8.10;100.00;95582.31;5041431;28;20045;-44
2022/09/27 04:47:34;;;;;;;4.57;1.35;;;8.70;99.90;;;8.07;100.00;95582.47;5031516;28;20117;-46
2022/09/27 04:49:59;;;;;;;3.30;1.30;;;8.70;99.90;;;8.07;100.00;95577.22;5051439;28;20028;-45
2022/09/27 04:52:25;;;;;;;7.75;1.40;;;8.70;99.90;;;8.10;100.00;95587.56;5048138;28;20039;-46
2022/09/27 04:54:51;;;;;;;10.02;1.60;;;8.70;99.90;;;8.14;100.00;95590.88;5050176;28;20392;-45
2022/09/27 04:57:17;;;;;;;3.95;1.30;;;8.70;99.90;;;8.15;100.00;95596.03;5051568;28;20040;-45
2022/09/27 04:59:43;;;;;;;5.18;1.67;;;8.80;99.90;;;8.15;100.00;95592.56;5055080;28;20036;-46
2022/09/27 05:02:08;;;;;;;6.05;1.67;;;8.80;99.90;;;8.15;100.00;95601.28;5046466;28;20039;-47
2022/09/27 05:04:34;;;;;;;5.45;1.67;;;8.80;99.90;;;8.14;100.00;95593.50;5045072;28;20107;-48
2022/09/27 05:07:00;;;;;;;4.20;1.30;;;8.80;99.90;;;8.19;100.00;95608.03;5040863;28;20426;-47
2022/09/27 05:09:25;;;;;;;3.92;1.27;;;8.80;99.90;;;8.06;100.00;95591.31;5048803;28;20090;-44
2022/09/27 05:11:51;;;;;;;5.68;1.50;;;8.90;99.90;;;8.16;100.00;95617.88;5046416;28;20040;-47
2022/09/27 05:14:17;;;;;;;4.13;1.20;;;8.80;99.90;;;8.16;100.00;95625.75;5040180;28;20033;-44
2022/09/27 05:16:42;;;;;;;5.22;1.63;;;8.80;99.90;;;8.14;100.00;95623.22;5044823;28;20037;-46
2022/09/27 05:19:08;;;;;;;4.47;1.70;;;8.80;99.90;;;8.14;100.00;95625.00;5047015;28;20675;-48
2022/09/27 05:21:34;;;;;;;6.78;1.50;;;8.80;99.90;;;8.14;100.00;95625.00;5047650;28;20071;-45
2022/09/27 05:24:00;;;;;;;6.70;1.65;;;8.80;99.90;;;8.11;100.00;95627.78;5047661;28;20065;-46
2022/09/27 05:26:26;;;;;;;4.13;1.65;;;8.70;99.90;;;8.11;100.00;95630.41;5047258;28;20040;-48
2022/09/27 05:28:51;;;;;;;4.75;1.70;;;8.80;99.90;;;8.05;100.00;95623.72;5037530;28;20075;-45
2022/09/27 05:31:17;;;;;;;2.92;1.30;;;8.70;99.90;;;8.09;100.00;95635.75;5037812;28;20028;-48
2022/09/27 05:33:43;;;;;;;3.22;1.30;;;8.70;99.90;;;8.14;100.00;95640.75;5048554;28;20078;-44
2022/09/27 05:36:09;;;;;;;4.85;1.35;;;8.80;99.90;;;8.13;100.00;95650.41;5052359;28;20040;-44
2022/09/27 05:38:35;;;;;;;2.35;1.20;;;8.80;99.90;;;8.12;100.00;95661.84;5050930;28;20059;-47
2022/09/27 05:41:02;;;;;;;2.92;1.13;;;8.80;99.90;;;8.14;100.00;95662.59;5053567;28;20043;-47
2022/09/27 05:43:28;;;;;;;4.05;1.70;;;8.80;99.90;;;8.15;100.00;95666.91;5039934;28;20040;-47
2022/09/27 05:45:54;;;;;;;5.22;1.48;;;8.80;99.90;;;8.12;100.00;95663.63;5043872;28;20036;-45
2022/09/27 05:48:20;;;;;;;1.60;0.93;;;8.80;99.90;;;8.11;100.00;95667.16;5041735;28;20035;-47
2022/09/27 05:50:46;;;;;;;3.25;0.93;;;8.80;99.90;;;8.15;100.00;95672.19;5047001;28;20296;-44
2022/09/27 05:53:12;;;;;;;4.97;1.23;;;8.80;99.90;;;8.12;100.00;95667.09;5051334;28;20082;-46
2022/09/27 05:55:38;;;;;;;1.77;1.00;;;8.80;99.90;;;8.16;100.00;95675.63;5045970;28;20110;-49
2022/09/27 05:58:06;;;;;;;3.25;1.17;;;8.80;99.90;;;8.19;100.00;95678.94;5049852;28;20028;-47
2022/09/27 06:00:34;;;;;;;2.85;1.10;;;8.80;99.90;;;8.21;100.00;95681.50;5050134;28;20110;-45
2022/09/27 06:03:03;;;;;;;5.70;1.02;;;8.80;99.90;;;8.27;100.00;95685.56;5043393;28;20029;-46
2022/09/27 06:05:34;;;;;;;2.65;1.00;;;8.80;99.90;;;8.22;100.00;95678.78;5050631;28;20382;-48
2022/09/27 06:08:10;;;;;;;4.25;1.98;;;8.90;99.90;;;8.31;100.00;95692.31;5043567;28;20034;-44
2022/09/27 06:10:36;;;;;;;4.88;1.00;;;8.90;99.90;;;8.27;100.00;95696.06;5048505;28;20035;-49
2022/09/27 06:13:07;;;;;;;3.40;1.20;;;8.90;99.90;;;8.30;100.00;95709.03;5044254;28;20093;-44
2022/09/27 06:15:35;;;;;;;1.92;1.05;;;8.90;99.90;;;8.35;100.00;95707.84;5045308;28;20513;-46
2022/09/27 06:18:10;;;;;;;4.45;0.93;;;8.90;99.90;;;8.41;100.00;95723.25;5042494;28;20174;-44
2022/09/27 06:20:38;;;;;;;2.17;0.95;;;9.00;99.90;;;8.51;100.00;95717.53;5047301;28;20055;-46
2022/09/27 06:23:17;;;;;;;3.10;0.75;;;9.10;99.90;;;8.60;100.00;95719.66;5048217;28;20049;-45
2022/09/27 06:25:43;;;;;;;1.95;0.82;;;9.20;99.90;;;8.68;100.00;95727.94;5046138;28;20037;-45
2022/09/27 06:28:10;;;;;;;5.60;1.15;;;9.30;99.90;;;8.74;100.00;95714.47;5047452;28;20032;-44
2022/09/27 06:30:49;;;;;;;3.47;1.30;;;9.30;99.90;;;8.89;100.00;95711.91;5042399;28;20021;-48
2022/09/27 06:33:18;;;;;;;1.10;0.75;;;9.50;99.90;;;8.98;100.00;95727.97;5047590;28;20075;-44
2022/09/27 06:35:45;;;;;;;1.95;1.05;;;9.60;99.90;;;9.03;100.00;95721.63;5050237;28;20306;-46
2022/09/27 06:38:14;;;;;;;2.17;0.70;;;9.60;99.90;;;9.11;100.00;95724.66;5044571;28;20032;-45
2022/09/27 06:40:44;;;;;;;0.68;0.50;;;9.80;99.90;;;9.09;100.00;95723.91;5047243;28;20116;-45
2022/09/27 06:43:14;;;;;;;1.50;0.80;;;9.80;99.90;;;9.17;100.00;95738.31;5045595;28;20067;-47
2022/09/27 06:45:41;;;;;;;1.85;0.75;;;9.80;99.90;;;9.25;100.00;95748.38;5046107;28;20063;-46
2022/09/27 06:48:09;;;;;;;3.88;0.98;;;9.80;99.90;;;9.21;100.00;95743.41;5045710;28;20032;-46
2022/09/27 06:50:37;;;;;;;3.47;0.60;;;9.80;99.90;;;9.10;100.00;95744.84;5048072;28;20115;-44
2022/09/27 06:53:05;;;;;;;1.02;0.60;;;9.80;99.90;;;8.93;100.00;95747.59;5037329;28;20736;-48
2022/09/27 06:55:31;;;;;;;1.08;0.50;;;9.70;99.90;;;8.95;100.00;95749.22;5050577;28;20036;-46
2022/09/27 07:00:47;;;;;;;1.33;0.60;;;9.60;99.90;;;8.85;100.00;95755.91;5057539;28;20597;-45
2022/09/27 07:03:13;;;;;;;3.78;0.55;;;9.60;99.90;;;8.87;100.00;95751.41;5047231;28;20466;-48
2022/09/27 07:05:42;;;;;;;1.55;0.50;;;9.60;99.90;;;8.86;100.00;95747.06;5048342;28;20051;-45
2022/09/27 07:08:10;;;;;;;1.27;0.50;;;9.60;99.90;;;8.89;100.00;95756.59;5040726;28;20147;-45
2022/09/27 07:10:39;;;;;;;1.85;0.40;;;9.60;99.90;;;8.95;100.00;95765.00;5052367;28;20263;-45
2022/09/27 07:13:10;;;;;;;1.10;0.47;;;9.60;99.90;;;8.98;100.00;95763.94;5045921;28;20024;-46
2022/09/27 07:15:40;;;;;;;0.35;0.30;;;9.70;99.90;;;9.00;100.00;95766.50;5043402;28;20816;-45
2022/09/27 07:18:07;;;;;;;2.28;0.40;;;9.70;99.90;;;9.04;100.00;95765.38;5042619;28;20046;-46
2022/09/27 07:20:37;;;;;;;0.75;0.35;;;9.70;99.90;;;9.15;100.00;95771.72;5048535;28;20071;-46
2022/09/27 07:23:07;;;;;;;2.17;0.40;;;9.80;99.90;;;9.33;100.00;95774.22;5043951;28;20041;-44
2022/09/27 07:25:34;;;;;;;0.30;0.30;;;9.90;99.90;;;9.47;100.00;95776.06;5045343;28;20082;-48
2022/09/27 07:28:02;;;;;;;1.42;0.40;;;10.10;99.90;;;9.36;100.00;95780.16;5049689;28;20162;-47
2022/09/27 07:30:28;;;;;;;3.17;0.40;;;10.10;99.90;;;9.38;100.00;95784.50;5046572;28;20223;-48
2022/09/27 07:33:02;;;;;;;0.40;0.40;;;10.10;99.90;;;9.30;100.00;95784.94;5036668;28;21113;-44
2022/09/27 07:35:29;;;;;;;0.22;0.22;;;10.00;99.90;;;9.18;100.00;95797.00;5048091;28;20045;-46
2022/09/27 07:37:55;;;;;;;1.67;0.35;;;10.00;99.90;;;9.25;100.00;95798.34;5069732;22;20577;-46
2022/09/27 07:40:22;;;;;;;1.77;0.82;;;9.90;99.90;;;9.29;100.00;95797.22;5043324;28;20029;-47
2022/09/27 07:42:56;;;;;;;3.05;0.32;;;10.00;99.90;;;9.31;100.00;95805.03;5044355;28;20036;-47
2022/09/27 07:45:23;;;;;;;0.60;0.50;;;10.10;99.90;;;9.20;100.00;95804.81;5044513;28;20047;-45
2022/09/27 07:47:49;;;;;;;0.32;0.30;;;10.00;99.90;;;9.34;100.00;95810.13;5040614;28;20036;-46
2022/09/27 07:50:14;;;;;;;0.50;0.30;;;10.00;99.90;;;9.35;100.00;95804.78;5047452;28;23796;-44
2022/09/27 07:52:43;;;;;;;2.17;0.32;;;10.10;99.90;;;9.31;100.00;95798.00;5049266;28;20021;-48
2022/09/27 07:55:12;;;;;;;0.60;0.40;;;10.10;99.90;;;8.95;100.00;95762.34;5041915;28;20878;-47
2022/09/27 07:57:37;;;;;;;0.50;0.40;;;9.90;99.90;;;9.09;100.00;95808.03;5046479;28;20025;-44
2022/09/27 08:00:07;;;;;;;0.43;0.35;;;9.80;99.90;;;9.10;100.00;95815.00;5047713;28;20064;-47
2022/09/27 08:02:33;;;;;;;0.80;0.55;;;9.80;99.90;;;9.02;100.00;95817.22;5044878;28;20024;-49
2022/09/27 08:04:59;;;;;;;1.58;0.60;;;9.80;99.90;;;9.11;100.00;95808.81;5049287;28;20536;-45
2022/09/27 08:07:26;;;;;;;0.77;0.50;;;9.90;99.90;;;9.27;100.00;95820.16;5039400;28;20520;-49
2022/09/27 08:09:51;;;;;;;1.75;0.60;;;10.00;99.90;;;9.33;100.00;95827.69;5045045;28;20527;-47
2022/09/27 08:12:20;;;;;;;4.35;0.50;;;10.10;99.90;;;9.45;100.00;95841.09;5049400;28;20367;-47
2022/09/27 08:14:46;;;;;;;0.93;0.60;;;10.10;99.90;;;9.29;100.00;95841.94;5045550;28;20040;-48
2022/09/27 08:17:13;;;;;;;2.15;0.82;;;10.10;99.90;;;9.48;100.00;95840.91;5043639;28;21654;-47
2022/09/27 08:19:39;;;;;;;0.68;0.50;;;10.10;99.90;;;9.30;100.00;95845.44;5048800;28;20307;-48
2022/09/27 08:22:06;;;;;;;3.55;0.75;;;10.10;99.90;;;9.39;100.00;95847.53;5048590;28;20097;-49
2022/09/27 08:24:32;;;;;;;5.70;0.70;;;10.10;99.90;;;9.36;100.00;95845.09;5047711;28;20033;-47
2022/09/27 08:26:59;;;;;;;0.90;0.60;;;10.20;99.90;;;9.41;100.00;95844.84;5040532;28;20147;-45
2022/09/27 08:29:25;;;;;;;0.70;0.40;;;10.20;99.90;;;9.43;100.00;95862.22;5046136;28;20110;-48
2022/09/27 08:31:52;;;;;;;0.52;0.47;;;10.20;99.90;;;9.27;100.00;95841.19;5049879;28;20456;-46
2022/09/27 08:34:19;;;;;;;0.63;0.50;;;10.10;99.90;;;9.35;100.00;95862.66;5047325;28;20064;-46
2022/09/27 08:36:44;;;;;;;0.50;0.40;;;10.10;99.90;;;9.44;100.00;95860.41;5047531;28;20043;-48
2022/09/27 08:39:10;;;;;;;0.95;0.50;;;10.20;99.90;;;9.61;100.00;95862.94;5049417;28;20067;-46
2022/09/27 08:42:16;;;;;;;1.45;0.43;;;10.40;99.90;;;9.73;100.00;95854.34;5045824;28;20164;-48
2022/09/27 08:45:17;;;;;;;1.08;0.40;;;10.50;99.90;;;10.01;100.00;95872.94;5020880;28;20091;-46
2022/09/27 08:48:00;;;;;;;0.65;0.40;;;10.60;99.90;;;10.06;100.00;95865.63;5049619;28;20071;-47
2022/09/27 08:50:34;;;;;;;3.80;0.75;;;10.80;99.90;;;10.24;100.00;95866.31;5046901;28;20553;-49
2022/09/27 08:53:18;;;;;;;2.78;0.60;;;11.00;99.90;;;10.41;100.00;95867.94;5046915;28;20028;-48
2022/09/27 08:55:54;;;;;;;0.77;0.50;;;11.10;99.90;;;10.57;100.00;95868.72;5042784;28;20032;-48
2022/09/27 08:58:30;;;;;;;1.42;0.60;;;11.30;99.90;;;10.60;100.00;95873.78;5042327;28;20029;-48
2022/09/27 09:00:59;;;;;;;1.60;0.40;;;11.40;99.90;;;10.56;100.00;95877.56;5047204;28;20036;-48
2022/09/27 09:03:29;;;;;;;1.17;0.65;;;11.40;99.90;;;10.63;100.00;95886.78;5042649;28;20035;-49
2022/09/27 09:06:21;;;;;;;0.63;0.50;;;11.40;99.90;;;10.59;100.00;95887.09;5048729;28;20098;-48
2022/09/27 09:08:59;;;;;;;1.33;0.50;;;11.30;99.90;;;10.54;100.00;95884.72;5048525;28;20028;-48
2022/09/27 09:14:58;;;;;;;0.73;0.40;;;11.20;99.90;;;10.35;100.00;95879.69;5046063;28;20046;-47
2022/09/27 09:17:52;;;;;;;3.45;0.68;;;11.00;99.90;;;10.06;100.00;95884.88;5048717;28;20033;-48
2022/09/27 09:20:50;;;;;;;1.17;0.60;;;10.90;99.90;;;10.03;100.00;95885.09;5048180;28;20453;-45
2022/09/27 09:23:53;;;;;;;1.38;0.43;;;10.70;99.90;;;10.07;100.00;95878.69;5049801;28;20025;-48
2022/09/27 09:26:43;;;;;;;0.40;0.40;;;10.80;99.90;;;9.95;100.00;95855.72;5042060;28;20051;-46
2022/09/27 09:29:29;;;;;;;2.70;0.40;;;10.70;99.90;;;10.07;100.00;95869.97;5044363;28;20028;-48
2022/09/27 09:32:06;;;;;;;2.40;0.57;;;10.70;99.90;;;10.00;100.00;95874.72;5046752;28;20028;-49
2022/09/27 09:34:41;;;;;;;0.93;0.45;;;10.60;99.90;;;9.86;100.00;95872.06;5044846;28;20408;-48
2022/09/27 09:37:38;;;;;;;1.40;0.32;;;10.60;99.90;;;9.89;100.00;95891.16;5047927;28;20024;-49
2022/09/27 09:40:23;;;;;;;1.38;0.57;;;10.50;99.90;;;9.73;100.00;95882.47;5049467;28;20116;-48
2022/09/27 09:43:00;;;;;;;2.53;0.60;;;10.40;99.90;;;9.86;100.00;95877.31;5058590;28;20047;-48
2022/09/27 09:45:40;;;;;;;2.25;0.80;;;10.50;99.90;;;10.07;100.00;95870.78;5042466;28;20249;-49
2022/09/27 09:48:14;;;;;;;1.67;0.57;;;10.70;99.90;;;10.26;100.00;95867.88;5048871;28;20025;-48
2022/09/27 09:50:48;;;;;;;1.75;0.95;;;10.90;99.90;;;10.63;100.00;95867.50;5049359;28;20044;-49
2022/09/27 09:53:31;;;;;;;1.80;1.00;;;11.20;99.90;;;11.03;100.00;95872.91;5042922;28;20082;-49
2022/09/27 09:56:06;;;;;;;5.13;1.23;;;11.60;99.90;;;11.26;100.00;95863.53;5049550;28;20029;-45
2022/09/27 09:58:50;;;;;;;2.45;0.82;;;11.80;99.90;;;11.48;99.82;95862.16;5045510;28;20089;-47
2022/09/27 10:01:25;;;;;;;5.90;1.30;;;12.10;99.90;;;11.58;100.00;95857.97;5045355;28;20035;-49
2022/09/27 10:03:55;;;;;;;3.30;0.80;;;12.30;99.90;;;11.79;97.19;95845.13;5048895;28;20199;-47
2022/09/27 10:06:24;;;;;;;1.90;0.73;;;12.50;99.90;;;11.96;96.36;95849.31;5038047;28;20059;-46
2022/09/27 10:08:53;;;;;;;1.65;0.73;;;12.70;99.90;;;11.85;90.83;95839.44;5045642;28;20111;-48
2022/09/27 10:11:28;;;;;;;4.70;0.98;;;12.60;99.90;;;11.92;92.58;95832.84;5046891;28;20033;-46
2022/09/27 10:13:56;;;;;;;4.13;0.80;;;12.70;99.90;;;12.20;91.75;95841.53;5046158;28;20079;-49
2022/09/27 10:16:25;;;;;;;1.35;0.80;;;12.90;99.90;;;12.56;89.84;95843.44;5039630;28;20046;-48
2022/09/27 10:18:56;;;;;;;3.10;0.70;;;13.20;99.90;;;12.90;87.42;95837.56;5042758;28;20528;-48
2022/09/27 10:21:27;;;;;;;3.13;0.70;;;13.50;99.90;;;12.98;81.71;95853.75;5056394;28;20036;-47
2022/09/27 10:24:10;;;;;;;2.63;0.82;;;13.70;99.90;;;12.97;83.39;95852.91;5040751;28;20718;-45
2022/09/27 10:26:38;;;;;;;7.32;1.02;;;13.70;99.90;;;12.89;86.53;95849.94;5046301;28;20391;-50
2022/09/27 10:29:35;;;;;;;2.20;1.00;;;13.60;99.90;;;12.62;80.02;95858.03;5046529;28;20020;-49
2022/09/27 10:32:04;;;;;;;3.25;0.95;;;13.40;99.90;;;12.32;84.42;95861.81;5033876;28;20044;-50
2022/09/27 10:34:32;;;;;;;4.13;1.20;;;13.10;99.90;;;12.01;88.16;95858.63;5038375;28;20029;-47
2022/09/27 10:37:05;;;;;;;1.77;1.00;;;12.70;99.90;;;11.73;85.88;95864.03;5038682;28;20500;-47
2022/09/27 10:39:32;;;;;;;1.58;0.70;;;12.40;99.90;;;11.55;86.71;95856.34;5040481;28;20041;-48
2022/09/27 10:41:58;;;;;;;9.98;3.90;;;12.20;99.90;;;11.61;91.18;95857.75;5044803;28;20044;-46
2022/09/27 10:44:31;;;;;;;5.65;3.20;;;12.30;99.90;;;11.86;90.64;95859.59;5044098;28;22310;-49
2022/09/27 10:47:06;;;;;;;2.70;0.55;;;12.50;99.90;;;12.11;88.13;95842.16;5041179;28;20029;-44
2022/09/27 10:49:34;;;;;;;1.55;0.80;;;12.70;99.90;;;12.50;86.74;95833.28;5041341;28;20029;-45
2022/09/27 10:52:21;;;;;;;3.47;0.65;;;13.10;99.90;;;12.80;81.39;95834.72;5042058;28;20066;-46
2022/09/27 10:55:17;;;;;;;1.60;0.60;;;13.40;99.90;;;12.77;78.14;95834.94;5044966;28;22069;-45